sensor_id;sensor_type;location;lat;lon;timestamp;P1;durP1;ratioP1;P2;durP2;ratioP2
11865;SDS011;5992;52.744;6.898;2023-01-10T00:02:23;2.20;;;0.90;;
11865;SDS011;5992;52.744;6.898;2023-01-10T00:05:37;4.27;;;1.27;;
11865;SDS011;5992;52.744;6.898;2023-01-10T00:08:53;1.87;;;1.00;;
11865;SDS011;5992;52.744;6.898;2023-01-10T00:12:17;2.37;;;1.17;;
11865;SDS011;5992;52.744;6.898;2023-01-10T00:15:23;4.27;;;1.20;;
11865;SDS011;5992;52.744;6.898;2023-01-10T00:18:35;5.75;;;1.30;;
11865;SDS011;5992;52.744;6.898;2023-01-10T00:21:37;7.70;;;1.90;;
11865;SDS011;5992;52.744;6.898;2023-01-10T00:25:02;2.20;;;1.70;;
11865;SDS011;5992;52.744;6.898;2023-01-10T00:28:02;3.27;;;1.70;;
11865;SDS011;5992;52.744;6.898;2023-01-10T00:31:15;5.73;;;2.07;;
11865;SDS011;5992;52.744;6.898;2023-01-10T00:34:16;6.23;;;1.40;;
11865;SDS011;5992;52.744;6.898;2023-01-10T00:37:30;6.53;;;1.80;;
11865;SDS011;5992;52.744;6.898;2023-01-10T00:40:41;3.70;;;1.30;;
11865;SDS011;5992;52.744;6.898;2023-01-10T00:43:53;4.37;;;1.30;;
11865;SDS011;5992;52.744;6.898;2023-01-10T00:46:43;3.50;;;1.20;;
11865;SDS011;5992;52.744;6.898;2023-01-10T00:49:59;5.07;;;1.60;;
11865;SDS011;5992;52.744;6.898;2023-01-10T00:53:01;2.70;;;1.47;;
11865;SDS011;5992;52.744;6.898;2023-01-10T00:56:25;3.87;;;1.57;;
11865;SDS011;5992;52.744;6.898;2023-01-10T00:59:25;3.97;;;1.23;;
11865;SDS011;5992;52.744;6.898;2023-01-10T01:02:40;4.50;;;1.90;;
11865;SDS011;5992;52.744;6.898;2023-01-10T01:05:40;5.73;;;2.37;;
11865;SDS011;5992;52.744;6.898;2023-01-10T01:09:06;4.23;;;1.40;;
11865;SDS011;5992;52.744;6.898;2023-01-10T01:12:18;3.40;;;1.83;;
11865;SDS011;5992;52.744;6.898;2023-01-10T01:15:32;4.50;;;1.70;;
11865;SDS011;5992;52.744;6.898;2023-01-10T01:18:42;7.45;;;2.60;;
11865;SDS011;5992;52.744;6.898;2023-01-10T01:22:07;2.60;;;1.57;;
11865;SDS011;5992;52.744;6.898;2023-01-10T01:25:09;7.40;;;2.00;;
11865;SDS011;5992;52.744;6.898;2023-01-10T01:28:34;7.87;;;2.00;;
11865;SDS011;5992;52.744;6.898;2023-01-10T01:31:34;9.10;;;2.10;;
11865;SDS011;5992;52.744;6.898;2023-01-10T01:34:58;6.63;;;1.90;;
11865;SDS011;5992;52.744;6.898;2023-01-10T01:37:58;8.13;;;1.90;;
11865;SDS011;5992;52.744;6.898;2023-01-10T01:41:12;2.50;;;1.60;;
11865;SDS011;5992;52.744;6.898;2023-01-10T01:44:30;6.53;;;2.33;;
11865;SDS011;5992;52.744;6.898;2023-01-10T01:47:55;4.43;;;1.70;;
11865;SDS011;5992;52.744;6.898;2023-01-10T01:51:07;5.43;;;1.83;;
11865;SDS011;5992;52.744;6.898;2023-01-10T01:54:30;3.23;;;1.40;;
11865;SDS011;5992;52.744;6.898;2023-01-10T01:57:44;3.23;;;1.60;;
11865;SDS011;5992;52.744;6.898;2023-01-10T02:01:09;5.07;;;1.87;;
11865;SDS011;5992;52.744;6.898;2023-01-10T02:04:34;8.20;;;1.60;;
11865;SDS011;5992;52.744;6.898;2023-01-10T02:07:57;6.23;;;1.63;;
11865;SDS011;5992;52.744;6.898;2023-01-10T02:11:12;5.70;;;1.40;;
11865;SDS011;5992;52.744;6.898;2023-01-10T02:14:27;6.43;;;1.57;;
11865;SDS011;5992;52.744;6.898;2023-01-10T02:17:40;6.25;;;1.40;;
11865;SDS011;5992;52.744;6.898;2023-01-10T02:24:43;5.03;;;1.60;;
11865;SDS011;5992;52.744;6.898;2023-01-10T02:28:13;4.33;;;1.47;;
11865;SDS011;5992;52.744;6.898;2023-01-10T02:31:37;4.90;;;1.80;;
11865;SDS011;5992;52.744;6.898;2023-01-10T02:35:06;2.47;;;1.40;;
11865;SDS011;5992;52.744;6.898;2023-01-10T02:38:18;7.23;;;2.47;;
11865;SDS011;5992;52.744;6.898;2023-01-10T02:41:42;3.83;;;1.20;;
11865;SDS011;5992;52.744;6.898;2023-01-10T02:44:53;5.13;;;1.53;;
11865;SDS011;5992;52.744;6.898;2023-01-10T02:48:17;9.10;;;2.33;;
11865;SDS011;5992;52.744;6.898;2023-01-10T02:51:30;6.57;;;1.70;;
11865;SDS011;5992;52.744;6.898;2023-01-10T02:54:56;6.87;;;1.87;;
11865;SDS011;5992;52.744;6.898;2023-01-10T02:58:09;5.43;;;1.40;;
11865;SDS011;5992;52.744;6.898;2023-01-10T03:01:35;3.77;;;1.67;;
11865;SDS011;5992;52.744;6.898;2023-01-10T03:04:48;7.45;;;1.70;;
11865;SDS011;5992;52.744;6.898;2023-01-10T03:08:16;5.03;;;2.03;;
11865;SDS011;5992;52.744;6.898;2023-01-10T03:11:30;9.53;;;2.23;;
11865;SDS011;5992;52.744;6.898;2023-01-10T03:14:54;6.43;;;1.37;;
11865;SDS011;5992;52.744;6.898;2023-01-10T03:18:07;3.43;;;1.60;;
11865;SDS011;5992;52.744;6.898;2023-01-10T03:21:30;4.00;;;1.97;;
11865;SDS011;5992;52.744;6.898;2023-01-10T03:24:44;8.23;;;2.20;;
11865;SDS011;5992;52.744;6.898;2023-01-10T03:28:09;5.50;;;1.90;;
11865;SDS011;5992;52.744;6.898;2023-01-10T03:31:21;4.00;;;1.93;;
11865;SDS011;5992;52.744;6.898;2023-01-10T03:34:44;4.73;;;2.07;;
11865;SDS011;5992;52.744;6.898;2023-01-10T03:37:56;9.53;;;1.50;;
11865;SDS011;5992;52.744;6.898;2023-01-10T03:41:23;6.27;;;2.10;;
11865;SDS011;5992;52.744;6.898;2023-01-10T03:44:37;3.23;;;1.87;;
11865;SDS011;5992;52.744;6.898;2023-01-10T03:47:47;4.27;;;1.80;;
11865;SDS011;5992;52.744;6.898;2023-01-10T03:50:59;4.07;;;1.80;;
11865;SDS011;5992;52.744;6.898;2023-01-10T03:54:24;6.77;;;1.67;;
11865;SDS011;5992;52.744;6.898;2023-01-10T03:57:40;6.07;;;1.77;;
11865;SDS011;5992;52.744;6.898;2023-01-10T04:01:01;4.27;;;1.33;;
11865;SDS011;5992;52.744;6.898;2023-01-10T04:04:14;4.80;;;1.40;;
11865;SDS011;5992;52.744;6.898;2023-01-10T04:07:15;4.90;;;1.33;;
11865;SDS011;5992;52.744;6.898;2023-01-10T04:10:27;4.70;;;1.63;;
11865;SDS011;5992;52.744;6.898;2023-01-10T04:13:28;3.90;;;1.60;;
11865;SDS011;5992;52.744;6.898;2023-01-10T04:16:53;3.43;;;1.93;;
11865;SDS011;5992;52.744;6.898;2023-01-10T04:19:53;3.90;;;1.50;;
11865;SDS011;5992;52.744;6.898;2023-01-10T04:23:05;5.10;;;1.30;;
11865;SDS011;5992;52.744;6.898;2023-01-10T04:26:05;6.40;;;1.37;;
11865;SDS011;5992;52.744;6.898;2023-01-10T04:29:19;5.07;;;1.60;;
11865;SDS011;5992;52.744;6.898;2023-01-10T04:32:33;3.80;;;1.23;;
11865;SDS011;5992;52.744;6.898;2023-01-10T04:35:48;4.07;;;1.67;;
11865;SDS011;5992;52.744;6.898;2023-01-10T04:39:00;8.07;;;1.33;;
11865;SDS011;5992;52.744;6.898;2023-01-10T04:42:12;8.50;;;1.80;;
11865;SDS011;5992;52.744;6.898;2023-01-10T04:45:13;6.75;;;1.80;;
11865;SDS011;5992;52.744;6.898;2023-01-10T04:48:39;3.23;;;1.37;;
11865;SDS011;5992;52.744;6.898;2023-01-10T04:51:39;4.20;;;1.27;;
11865;SDS011;5992;52.744;6.898;2023-01-10T04:54:52;10.53;;;2.40;;
11865;SDS011;5992;52.744;6.898;2023-01-10T04:57:52;5.90;;;1.77;;
11865;SDS011;5992;52.744;6.898;2023-01-10T05:01:19;3.30;;;1.70;;
11865;SDS011;5992;52.744;6.898;2023-01-10T05:04:29;6.73;;;1.83;;
11865;SDS011;5992;52.744;6.898;2023-01-10T05:07:56;3.85;;;1.40;;
11865;SDS011;5992;52.744;6.898;2023-01-10T05:10:56;4.53;;;1.70;;
11865;SDS011;5992;52.744;6.898;2023-01-10T05:14:08;7.00;;;2.10;;
11865;SDS011;5992;52.744;6.898;2023-01-10T05:17:09;6.43;;;1.97;;
11865;SDS011;5992;52.744;6.898;2023-01-10T05:20:34;6.80;;;1.30;;
11865;SDS011;5992;52.744;6.898;2023-01-10T05:23:34;7.03;;;1.80;;
11865;SDS011;5992;52.744;6.898;2023-01-10T05:26:58;5.13;;;1.53;;
11865;SDS011;5992;52.744;6.898;2023-01-10T05:29:58;3.87;;;1.33;;
11865;SDS011;5992;52.744;6.898;2023-01-10T05:33:12;1.53;;;1.20;;
11865;SDS011;5992;52.744;6.898;2023-01-10T05:36:24;3.73;;;1.67;;
11865;SDS011;5992;52.744;6.898;2023-01-10T05:39:37;7.00;;;1.73;;
11865;SDS011;5992;52.744;6.898;2023-01-10T05:42:38;8.75;;;2.00;;
11865;SDS011;5992;52.744;6.898;2023-01-10T05:45:53;2.57;;;1.50;;
11865;SDS011;5992;52.744;6.898;2023-01-10T05:49:06;3.20;;;1.40;;
11865;SDS011;5992;52.744;6.898;2023-01-10T05:52:30;5.77;;;2.07;;
11865;SDS011;5992;52.744;6.898;2023-01-10T05:55:30;4.70;;;1.47;;
11865;SDS011;5992;52.744;6.898;2023-01-10T05:58:55;9.67;;;2.83;;
11865;SDS011;5992;52.744;6.898;2023-01-10T06:02:06;4.70;;;1.80;;
11865;SDS011;5992;52.744;6.898;2023-01-10T06:05:21;5.35;;;1.90;;
11865;SDS011;5992;52.744;6.898;2023-01-10T06:08:33;6.73;;;1.97;;
11865;SDS011;5992;52.744;6.898;2023-01-10T06:11:57;4.57;;;1.90;;
11865;SDS011;5992;52.744;6.898;2023-01-10T06:14:57;4.43;;;1.90;;
11865;SDS011;5992;52.744;6.898;2023-01-10T06:18:22;5.90;;;2.27;;
11865;SDS011;5992;52.744;6.898;2023-01-10T06:21:36;5.37;;;1.63;;
11865;SDS011;5992;52.744;6.898;2023-01-10T06:25:00;9.20;;;1.70;;
11865;SDS011;5992;52.744;6.898;2023-01-10T06:28:00;4.07;;;2.07;;
11865;SDS011;5992;52.744;6.898;2023-01-10T06:31:12;5.50;;;1.87;;
11865;SDS011;5992;52.744;6.898;2023-01-10T06:34:16;4.77;;;1.60;;
11865;SDS011;5992;52.744;6.898;2023-01-10T06:37:34;5.97;;;2.07;;
11865;SDS011;5992;52.744;6.898;2023-01-10T06:40:45;3.03;;;1.80;;
11865;SDS011;5992;52.744;6.898;2023-01-10T06:44:00;5.87;;;1.90;;
11865;SDS011;5992;52.744;6.898;2023-01-10T06:47:03;5.80;;;1.90;;
11865;SDS011;5992;52.744;6.898;2023-01-10T06:50:15;4.90;;;1.37;;
11865;SDS011;5992;52.744;6.898;2023-01-10T06:53:17;3.57;;;1.63;;
11865;SDS011;5992;52.744;6.898;2023-01-10T06:56:41;8.17;;;1.93;;
11865;SDS011;5992;52.744;6.898;2023-01-10T06:59:41;6.97;;;2.00;;
11865;SDS011;5992;52.744;6.898;2023-01-10T07:02:55;8.37;;;1.87;;
11865;SDS011;5992;52.744;6.898;2023-01-10T07:06:07;4.37;;;1.73;;
11865;SDS011;5992;52.744;6.898;2023-01-10T07:09:32;9.27;;;2.37;;
11865;SDS011;5992;52.744;6.898;2023-01-10T07:12:44;6.27;;;1.90;;
11865;SDS011;5992;52.744;6.898;2023-01-10T07:16:02;4.60;;;1.93;;
11865;SDS011;5992;52.744;6.898;2023-01-10T07:19:02;4.80;;;2.23;;
11865;SDS011;5992;52.744;6.898;2023-01-10T07:22:15;5.07;;;2.10;;
11865;SDS011;5992;52.744;6.898;2023-01-10T07:25:17;8.80;;;2.90;;
11865;SDS011;5992;52.744;6.898;2023-01-10T07:28:43;7.20;;;2.20;;
11865;SDS011;5992;52.744;6.898;2023-01-10T07:31:54;10.53;;;2.93;;
11865;SDS011;5992;52.744;6.898;2023-01-10T07:35:07;10.73;;;2.53;;
11865;SDS011;5992;52.744;6.898;2023-01-10T07:38:07;3.57;;;1.50;;
11865;SDS011;5992;52.744;6.898;2023-01-10T07:41:21;4.83;;;2.10;;
11865;SDS011;5992;52.744;6.898;2023-01-10T07:44:33;2.93;;;1.67;;
11865;SDS011;5992;52.744;6.898;2023-01-10T07:47:45;9.50;;;1.90;;
11865;SDS011;5992;52.744;6.898;2023-01-10T07:50:45;2.80;;;1.57;;
11865;SDS011;5992;52.744;6.898;2023-01-10T07:53:59;7.23;;;2.50;;
11865;SDS011;5992;52.744;6.898;2023-01-10T07:57:00;4.47;;;2.17;;
11865;SDS011;5992;52.744;6.898;2023-01-10T08:00:26;11.73;;;2.80;;
11865;SDS011;5992;52.744;6.898;2023-01-10T08:03:50;7.33;;;2.53;;
11865;SDS011;5992;52.744;6.898;2023-01-10T08:07:02;7.25;;;2.40;;
11865;SDS011;5992;52.744;6.898;2023-01-10T08:10:14;3.60;;;1.83;;
11865;SDS011;5992;52.744;6.898;2023-01-10T08:13:16;4.57;;;1.87;;
11865;SDS011;5992;52.744;6.898;2023-01-10T08:16:42;13.17;;;3.10;;
11865;SDS011;5992;52.744;6.898;2023-01-10T08:19:42;6.53;;;2.10;;
11865;SDS011;5992;52.744;6.898;2023-01-10T08:22:55;6.67;;;2.03;;
11865;SDS011;5992;52.744;6.898;2023-01-10T08:26:08;9.20;;;2.80;;
11865;SDS011;5992;52.744;6.898;2023-01-10T08:29:21;6.40;;;2.37;;
11865;SDS011;5992;52.744;6.898;2023-01-10T08:32:34;3.87;;;2.00;;
11865;SDS011;5992;52.744;6.898;2023-01-10T08:35:46;8.83;;;3.03;;
11865;SDS011;5992;52.744;6.898;2023-01-10T08:38:46;7.83;;;2.43;;
11865;SDS011;5992;52.744;6.898;2023-01-10T08:42:13;5.37;;;2.33;;
11865;SDS011;5992;52.744;6.898;2023-01-10T08:45:14;4.80;;;2.20;;
11865;SDS011;5992;52.744;6.898;2023-01-10T08:48:39;9.47;;;2.47;;
11865;SDS011;5992;52.744;6.898;2023-01-10T08:51:39;7.50;;;2.27;;
11865;SDS011;5992;52.744;6.898;2023-01-10T08:54:52;12.53;;;3.17;;
11865;SDS011;5992;52.744;6.898;2023-01-10T08:57:56;4.70;;;2.77;;
11865;SDS011;5992;52.744;6.898;2023-01-10T09:01:20;7.77;;;2.53;;
11865;SDS011;5992;52.744;6.898;2023-01-10T09:04:33;6.13;;;2.70;;
11865;SDS011;5992;52.744;6.898;2023-01-10T09:07:46;13.10;;;3.13;;
11865;SDS011;5992;52.744;6.898;2023-01-10T09:10:46;8.33;;;2.10;;
11865;SDS011;5992;52.744;6.898;2023-01-10T09:13:59;5.20;;;2.40;;
11865;SDS011;5992;52.744;6.898;2023-01-10T09:17:00;12.37;;;2.87;;
11865;SDS011;5992;52.744;6.898;2023-01-10T09:20:26;5.93;;;3.10;;
11865;SDS011;5992;52.744;6.898;2023-01-10T09:23:37;6.13;;;2.97;;
11865;SDS011;5992;52.744;6.898;2023-01-10T09:27:01;8.43;;;2.87;;
11865;SDS011;5992;52.744;6.898;2023-01-10T09:30:01;6.27;;;2.77;;
11865;SDS011;5992;52.744;6.898;2023-01-10T09:33:14;9.30;;;3.07;;
11865;SDS011;5992;52.744;6.898;2023-01-10T09:36:27;8.03;;;2.60;;
11865;SDS011;5992;52.744;6.898;2023-01-10T09:39:39;4.13;;;2.30;;
11865;SDS011;5992;52.744;6.898;2023-01-10T09:42:54;8.10;;;2.85;;
11865;SDS011;5992;52.744;6.898;2023-01-10T09:46:19;11.70;;;2.50;;
11865;SDS011;5992;52.744;6.898;2023-01-10T09:49:36;7.13;;;2.80;;
11865;SDS011;5992;52.744;6.898;2023-01-10T09:53:01;9.93;;;3.00;;
11865;SDS011;5992;52.744;6.898;2023-01-10T09:56:12;5.87;;;2.23;;
11865;SDS011;5992;52.744;6.898;2023-01-10T09:59:39;11.03;;;3.20;;
11865;SDS011;5992;52.744;6.898;2023-01-10T10:03:02;7.80;;;2.87;;
11865;SDS011;5992;52.744;6.898;2023-01-10T10:06:20;11.33;;;3.37;;
11865;SDS011;5992;52.744;6.898;2023-01-10T10:09:44;8.80;;;2.83;;
11865;SDS011;5992;52.744;6.898;2023-01-10T10:12:46;10.53;;;3.80;;
11865;SDS011;5992;52.744;6.898;2023-01-10T10:16:11;11.93;;;3.77;;
11865;SDS011;5992;52.744;6.898;2023-01-10T10:19:22;10.43;;;3.57;;
11865;SDS011;5992;52.744;6.898;2023-01-10T10:22:49;13.00;;;3.17;;
11865;SDS011;5992;52.744;6.898;2023-01-10T10:26:01;17.07;;;4.33;;
11865;SDS011;5992;52.744;6.898;2023-01-10T10:29:43;11.30;;;4.07;;
11865;SDS011;5992;52.744;6.898;2023-01-10T10:32:56;5.50;;;3.17;;
11865;SDS011;5992;52.744;6.898;2023-01-10T10:36:24;9.37;;;3.70;;
11865;SDS011;5992;52.744;6.898;2023-01-10T10:39:37;16.40;;;4.33;;
11865;SDS011;5992;52.744;6.898;2023-01-10T10:43:05;12.40;;;4.40;;
11865;SDS011;5992;52.744;6.898;2023-01-10T10:46:13;7.70;;;3.13;;
11865;SDS011;5992;52.744;6.898;2023-01-10T10:49:40;12.30;;;3.87;;
11865;SDS011;5992;52.744;6.898;2023-01-10T10:52:49;10.27;;;3.37;;
11865;SDS011;5992;52.744;6.898;2023-01-10T10:56:05;8.87;;;3.70;;
11865;SDS011;5992;52.744;6.898;2023-01-10T10:59:17;11.97;;;3.73;;
11865;SDS011;5992;52.744;6.898;2023-01-10T11:02:42;10.93;;;3.10;;
11865;SDS011;5992;52.744;6.898;2023-01-10T11:05:52;10.20;;;3.40;;
11865;SDS011;5992;52.744;6.898;2023-01-10T11:09:17;16.35;;;3.50;;
11865;SDS011;5992;52.744;6.898;2023-01-10T11:12:33;11.77;;;3.47;;
11865;SDS011;5992;52.744;6.898;2023-01-10T11:15:58;15.20;;;3.30;;
11865;SDS011;5992;52.744;6.898;2023-01-10T11:19:19;9.13;;;4.00;;
11865;SDS011;5992;52.744;6.898;2023-01-10T11:22:44;8.00;;;2.93;;
11865;SDS011;5992;52.744;6.898;2023-01-10T11:25:55;7.73;;;2.73;;
11865;SDS011;5992;52.744;6.898;2023-01-10T11:29:23;11.50;;;3.60;;
11865;SDS011;5992;52.744;6.898;2023-01-10T11:32:34;12.50;;;3.10;;
11865;SDS011;5992;52.744;6.898;2023-01-10T11:35:58;11.40;;;3.10;;
11865;SDS011;5992;52.744;6.898;2023-01-10T11:39:12;12.10;;;3.23;;
11865;SDS011;5992;52.744;6.898;2023-01-10T11:42:35;7.57;;;2.83;;
11865;SDS011;5992;52.744;6.898;2023-01-10T11:45:53;11.90;;;4.10;;
11865;SDS011;5992;52.744;6.898;2023-01-10T11:49:20;14.80;;;3.60;;
11865;SDS011;5992;52.744;6.898;2023-01-10T11:52:34;11.77;;;3.90;;
11865;SDS011;5992;52.744;6.898;2023-01-10T11:55:58;13.30;;;3.47;;
11865;SDS011;5992;52.744;6.898;2023-01-10T11:59:11;10.93;;;3.00;;
11865;SDS011;5992;52.744;6.898;2023-01-10T12:02:38;15.13;;;3.20;;
11865;SDS011;5992;52.744;6.898;2023-01-10T12:06:02;11.07;;;3.10;;
11865;SDS011;5992;52.744;6.898;2023-01-10T12:09:32;12.80;;;4.13;;
11865;SDS011;5992;52.744;6.898;2023-01-10T12:12:59;8.10;;;2.40;;
11865;SDS011;5992;52.744;6.898;2023-01-10T12:16:16;6.13;;;2.50;;
11865;SDS011;5992;52.744;6.898;2023-01-10T12:19:43;14.87;;;3.90;;
11865;SDS011;5992;52.744;6.898;2023-01-10T12:22:57;9.67;;;2.80;;
11865;SDS011;5992;52.744;6.898;2023-01-10T12:26:20;8.80;;;3.50;;
11865;SDS011;5992;52.744;6.898;2023-01-10T12:29:33;10.10;;;3.00;;
11865;SDS011;5992;52.744;6.898;2023-01-10T12:32:58;11.57;;;2.97;;
11865;SDS011;5992;52.744;6.898;2023-01-10T12:36:11;8.57;;;2.63;;
11865;SDS011;5992;52.744;6.898;2023-01-10T12:39:36;12.40;;;2.90;;
11865;SDS011;5992;52.744;6.898;2023-01-10T12:42:50;10.70;;;2.83;;
11865;SDS011;5992;52.744;6.898;2023-01-10T12:46:19;14.63;;;3.63;;
11865;SDS011;5992;52.744;6.898;2023-01-10T12:49:34;11.00;;;3.37;;
11865;SDS011;5992;52.744;6.898;2023-01-10T12:53:01;12.87;;;4.30;;
11865;SDS011;5992;52.744;6.898;2023-01-10T12:56:15;12.57;;;2.90;;
11865;SDS011;5992;52.744;6.898;2023-01-10T12:59:40;11.03;;;3.07;;
11865;SDS011;5992;52.744;6.898;2023-01-10T13:02:53;8.33;;;3.30;;
11865;SDS011;5992;52.744;6.898;2023-01-10T13:06:19;14.20;;;4.17;;
11865;SDS011;5992;52.744;6.898;2023-01-10T13:09:33;15.80;;;3.47;;
11865;SDS011;5992;52.744;6.898;2023-01-10T13:12:58;14.67;;;3.40;;
11865;SDS011;5992;52.744;6.898;2023-01-10T13:16:17;14.27;;;3.90;;
11865;SDS011;5992;52.744;6.898;2023-01-10T13:19:41;12.73;;;3.27;;
11865;SDS011;5992;52.744;6.898;2023-01-10T13:22:44;7.13;;;3.27;;
11865;SDS011;5992;52.744;6.898;2023-01-10T13:26:10;16.50;;;4.23;;
11865;SDS011;5992;52.744;6.898;2023-01-10T13:29:23;8.60;;;2.70;;
11865;SDS011;5992;52.744;6.898;2023-01-10T13:32:47;8.80;;;3.17;;
11865;SDS011;5992;52.744;6.898;2023-01-10T13:36:05;12.37;;;3.33;;
11865;SDS011;5992;52.744;6.898;2023-01-10T13:39:29;11.57;;;3.50;;
11865;SDS011;5992;52.744;6.898;2023-01-10T13:42:42;18.30;;;4.43;;
11865;SDS011;5992;52.744;6.898;2023-01-10T13:52:55;11.30;;;2.87;;
11865;SDS011;5992;52.744;6.898;2023-01-10T13:56:26;10.97;;;3.57;;
11865;SDS011;5992;52.744;6.898;2023-01-10T14:09:59;9.70;;;3.20;;
11865;SDS011;5992;52.744;6.898;2023-01-10T14:13:13;8.47;;;2.90;;
11865;SDS011;5992;52.744;6.898;2023-01-10T14:16:38;10.83;;;3.30;;
11865;SDS011;5992;52.744;6.898;2023-01-10T14:19:56;11.37;;;2.80;;
11865;SDS011;5992;52.744;6.898;2023-01-10T14:23:20;11.77;;;3.10;;
11865;SDS011;5992;52.744;6.898;2023-01-10T14:26:34;12.27;;;3.67;;
11865;SDS011;5992;52.744;6.898;2023-01-10T14:29:58;13.97;;;3.27;;
11865;SDS011;5992;52.744;6.898;2023-01-10T14:33:12;11.03;;;3.10;;
11865;SDS011;5992;52.744;6.898;2023-01-10T14:36:39;10.63;;;2.77;;
11865;SDS011;5992;52.744;6.898;2023-01-10T14:39:49;8.33;;;2.83;;
11865;SDS011;5992;52.744;6.898;2023-01-10T14:43:15;13.43;;;2.43;;
11865;SDS011;5992;52.744;6.898;2023-01-10T14:46:28;13.47;;;3.27;;
11865;SDS011;5992;52.744;6.898;2023-01-10T14:49:51;8.13;;;2.77;;
11865;SDS011;5992;52.744;6.898;2023-01-10T14:52:51;12.85;;;3.28;;
11865;SDS011;5992;52.744;6.898;2023-01-10T14:56:03;9.00;;;3.13;;
11865;SDS011;5992;52.744;6.898;2023-01-10T14:59:17;12.13;;;3.40;;
11865;SDS011;5992;52.744;6.898;2023-01-10T15:02:42;12.13;;;2.67;;
11865;SDS011;5992;52.744;6.898;2023-01-10T15:05:55;13.63;;;3.57;;
11865;SDS011;5992;52.744;6.898;2023-01-10T15:09:21;11.43;;;2.87;;
11865;SDS011;5992;52.744;6.898;2023-01-10T15:12:33;12.40;;;3.17;;
11865;SDS011;5992;52.744;6.898;2023-01-10T15:15:59;10.50;;;2.70;;
11865;SDS011;5992;52.744;6.898;2023-01-10T15:19:14;13.10;;;3.00;;
11865;SDS011;5992;52.744;6.898;2023-01-10T15:22:38;9.60;;;2.60;;
11865;SDS011;5992;52.744;6.898;2023-01-10T15:25:54;10.60;;;3.00;;
11865;SDS011;5992;52.744;6.898;2023-01-10T15:29:19;10.73;;;2.67;;
11865;SDS011;5992;52.744;6.898;2023-01-10T15:32:33;9.53;;;2.70;;
11865;SDS011;5992;52.744;6.898;2023-01-10T15:36:01;8.13;;;2.10;;
11865;SDS011;5992;52.744;6.898;2023-01-10T15:39:17;10.63;;;2.60;;
11865;SDS011;5992;52.744;6.898;2023-01-10T15:42:50;10.46;;;2.89;;
11865;SDS011;5992;52.744;6.898;2023-01-10T15:45:51;8.87;;;2.63;;
11865;SDS011;5992;52.744;6.898;2023-01-10T15:49:20;13.87;;;2.43;;
11865;SDS011;5992;52.744;6.898;2023-01-10T15:52:32;10.50;;;2.30;;
11865;SDS011;5992;52.744;6.898;2023-01-10T15:55:45;13.37;;;2.73;;
11865;SDS011;5992;52.744;6.898;2023-01-10T15:58:57;10.47;;;2.47;;
11865;SDS011;5992;52.744;6.898;2023-01-10T16:02:21;9.60;;;2.33;;
11865;SDS011;5992;52.744;6.898;2023-01-10T16:05:51;17.03;;;2.97;;
11865;SDS011;5992;52.744;6.898;2023-01-10T16:09:04;11.37;;;2.93;;
11865;SDS011;5992;52.744;6.898;2023-01-10T16:12:31;8.83;;;2.70;;
11865;SDS011;5992;52.744;6.898;2023-01-10T16:15:49;14.13;;;2.53;;
11865;SDS011;5992;52.744;6.898;2023-01-10T16:19:01;7.13;;;2.03;;
11865;SDS011;5992;52.744;6.898;2023-01-10T16:22:02;12.13;;;2.90;;
11865;SDS011;5992;52.744;6.898;2023-01-10T16:25:27;7.45;;;2.20;;
11865;SDS011;5992;52.744;6.898;2023-01-10T16:28:42;13.87;;;3.47;;
11865;SDS011;5992;52.744;6.898;2023-01-10T16:31:54;13.13;;;3.12;;
11865;SDS011;5992;52.744;6.898;2023-01-10T16:34:54;11.80;;;3.30;;
11865;SDS011;5992;52.744;6.898;2023-01-10T16:38:08;13.03;;;2.63;;
11865;SDS011;5992;52.744;6.898;2023-01-10T16:41:23;5.90;;;2.23;;
11865;SDS011;5992;52.744;6.898;2023-01-10T16:44:41;9.37;;;2.27;;
11865;SDS011;5992;52.744;6.898;2023-01-10T16:47:41;9.40;;;2.67;;
11865;SDS011;5992;52.744;6.898;2023-01-10T16:50:53;7.67;;;2.10;;
11865;SDS011;5992;52.744;6.898;2023-01-10T16:53:55;8.07;;;1.97;;
11865;SDS011;5992;52.744;6.898;2023-01-10T16:57:18;10.07;;;2.50;;
11865;SDS011;5992;52.744;6.898;2023-01-10T17:00:18;11.77;;;2.10;;
11865;SDS011;5992;52.744;6.898;2023-01-10T17:03:33;9.77;;;2.97;;
11865;SDS011;5992;52.744;6.898;2023-01-10T17:06:44;14.23;;;3.67;;
11865;SDS011;5992;52.744;6.898;2023-01-10T17:10:00;12.03;;;2.63;;
11865;SDS011;5992;52.744;6.898;2023-01-10T17:13:12;6.57;;;2.00;;
11865;SDS011;5992;52.744;6.898;2023-01-10T17:16:36;14.87;;;2.77;;
11865;SDS011;5992;52.744;6.898;2023-01-10T17:19:48;9.53;;;2.37;;
11865;SDS011;5992;52.744;6.898;2023-01-10T17:23:00;7.13;;;2.10;;
11865;SDS011;5992;52.744;6.898;2023-01-10T17:26:02;5.93;;;2.30;;
11865;SDS011;5992;52.744;6.898;2023-01-10T17:29:26;7.83;;;2.30;;
11865;SDS011;5992;52.744;6.898;2023-01-10T17:32:26;5.37;;;1.80;;
11865;SDS011;5992;52.744;6.898;2023-01-10T17:35:39;7.40;;;1.93;;
11865;SDS011;5992;52.744;6.898;2023-01-10T17:38:50;4.73;;;1.83;;
11865;SDS011;5992;52.744;6.898;2023-01-10T17:42:07;5.60;;;2.60;;
11865;SDS011;5992;52.744;6.898;2023-01-10T17:45:18;5.57;;;1.77;;
11865;SDS011;5992;52.744;6.898;2023-01-10T17:48:34;6.30;;;1.95;;
11865;SDS011;5992;52.744;6.898;2023-01-10T17:51:45;4.77;;;1.63;;
11865;SDS011;5992;52.744;6.898;2023-01-10T17:54:57;4.93;;;2.10;;
11865;SDS011;5992;52.744;6.898;2023-01-10T17:57:59;4.40;;;1.90;;
11865;SDS011;5992;52.744;6.898;2023-01-10T18:01:24;9.30;;;2.10;;
11865;SDS011;5992;52.744;6.898;2023-01-10T18:04:37;9.87;;;2.27;;
11865;SDS011;5992;52.744;6.898;2023-01-10T18:07:37;3.67;;;1.70;;
11865;SDS011;5992;52.744;6.898;2023-01-10T18:10:51;7.17;;;1.70;;
11865;SDS011;5992;52.744;6.898;2023-01-10T18:14:04;6.37;;;1.50;;
11865;SDS011;5992;52.744;6.898;2023-01-10T18:17:46;7.23;;;1.90;;
11865;SDS011;5992;52.744;6.898;2023-01-10T18:20:49;6.70;;;1.43;;
11865;SDS011;5992;52.744;6.898;2023-01-10T18:24:03;5.17;;;1.73;;
11865;SDS011;5992;52.744;6.898;2023-01-10T18:27:02;7.30;;;1.60;;
11865;SDS011;5992;52.744;6.898;2023-01-10T18:30:17;4.33;;;1.83;;
11865;SDS011;5992;52.744;6.898;2023-01-10T18:33:29;6.13;;;1.73;;
11865;SDS011;5992;52.744;6.898;2023-01-10T18:36:53;4.07;;;1.60;;
11865;SDS011;5992;52.744;6.898;2023-01-10T18:39:53;2.07;;;1.10;;
11865;SDS011;5992;52.744;6.898;2023-01-10T18:43:06;4.53;;;2.40;;
11865;SDS011;5992;52.744;6.898;2023-01-10T18:46:08;2.60;;;1.43;;
11865;SDS011;5992;52.744;6.898;2023-01-10T18:49:32;1.83;;;1.40;;
11865;SDS011;5992;52.744;6.898;2023-01-10T18:52:44;3.30;;;1.70;;
11865;SDS011;5992;52.744;6.898;2023-01-10T18:55:57;8.90;;;1.90;;
11865;SDS011;5992;52.744;6.898;2023-01-10T18:59:08;7.67;;;2.23;;
11865;SDS011;5992;52.744;6.898;2023-01-10T19:02:21;2.67;;;1.67;;
11865;SDS011;5992;52.744;6.898;2023-01-10T19:05:34;6.23;;;1.67;;
11865;SDS011;5992;52.744;6.898;2023-01-10T19:08:46;3.07;;;1.93;;
11865;SDS011;5992;52.744;6.898;2023-01-10T19:11:46;5.07;;;1.80;;
11865;SDS011;5992;52.744;6.898;2023-01-10T19:14:58;2.90;;;1.80;;
11865;SDS011;5992;52.744;6.898;2023-01-10T19:17:59;4.90;;;2.00;;
11865;SDS011;5992;52.744;6.898;2023-01-10T19:21:25;1.67;;;1.50;;
11865;SDS011;5992;52.744;6.898;2023-01-10T19:24:37;5.13;;;2.20;;
11865;SDS011;5992;52.744;6.898;2023-01-10T19:27:49;3.90;;;1.97;;
11865;SDS011;5992;52.744;6.898;2023-01-10T19:30:50;3.53;;;1.83;;
11865;SDS011;5992;52.744;6.898;2023-01-10T19:34:15;4.30;;;1.85;;
11865;SDS011;5992;52.744;6.898;2023-01-10T19:37:28;3.63;;;1.40;;
11865;SDS011;5992;52.744;6.898;2023-01-10T19:40:41;2.43;;;1.60;;
11865;SDS011;5992;52.744;6.898;2023-01-10T19:43:41;6.23;;;1.80;;
11865;SDS011;5992;52.744;6.898;2023-01-10T19:46:53;3.30;;;1.37;;
11865;SDS011;5992;52.744;6.898;2023-01-10T19:49:54;2.93;;;1.77;;
11865;SDS011;5992;52.744;6.898;2023-01-10T19:53:19;2.70;;;1.60;;
11865;SDS011;5992;52.744;6.898;2023-01-10T19:56:22;3.23;;;1.63;;
11865;SDS011;5992;52.744;6.898;2023-01-10T19:59:34;3.20;;;1.83;;
11865;SDS011;5992;52.744;6.898;2023-01-10T20:02:34;2.33;;;1.90;;
11865;SDS011;5992;52.744;6.898;2023-01-10T20:06:01;3.40;;;1.70;;
11865;SDS011;5992;52.744;6.898;2023-01-10T20:09:13;1.70;;;1.60;;